sensor_id;sensor_type;location;lat;lon;timestamp;temperature;humidity
13472;DHT22;6808;49.444;11.034;2023-07-13T00:00:44;22.40;90.20
13472;DHT22;6808;49.444;11.034;2023-07-13T00:03:09;22.40;90.30
13472;DHT22;6808;49.444;11.034;2023-07-13T00:05:39;22.30;90.30
13472;DHT22;6808;49.444;11.034;2023-07-13T00:08:05;22.30;90.30
13472;DHT22;6808;49.444;11.034;2023-07-13T00:10:30;22.70;90.70
13472;DHT22;6808;49.444;11.034;2023-07-13T00:12:57;22.70;90.60
13472;DHT22;6808;49.444;11.034;2023-07-13T00:15:26;22.30;90.40
13472;DHT22;6808;49.444;11.034;2023-07-13T00:17:53;22.30;90.80
13472;DHT22;6808;49.444;11.034;2023-07-13T00:20:21;22.20;90.80
13472;DHT22;6808;49.444;11.034;2023-07-13T00:22:48;22.20;90.80
13472;DHT22;6808;49.444;11.034;2023-07-13T00:25:14;22.30;91.10
13472;DHT22;6808;49.444;11.034;2023-07-13T00:27:42;22.20;91.00
13472;DHT22;6808;49.444;11.034;2023-07-13T00:30:08;22.10;91.20
13472;DHT22;6808;49.444;11.034;2023-07-13T00:32:34;22.10;91.10
13472;DHT22;6808;49.444;11.034;2023-07-13T00:35:01;22.20;91.70
13472;DHT22;6808;49.444;11.034;2023-07-13T00:37:26;22.10;91.40
13472;DHT22;6808;49.444;11.034;2023-07-13T00:39:52;22.10;91.20
13472;DHT22;6808;49.444;11.034;2023-07-13T00:42:18;22.30;91.40
13472;DHT22;6808;49.444;11.034;2023-07-13T00:47:39;22.00;91.20
13472;DHT22;6808;49.444;11.034;2023-07-13T00:50:07;22.00;91.50
13472;DHT22;6808;49.444;11.034;2023-07-13T00:52:36;22.00;91.20
13472;DHT22;6808;49.444;11.034;2023-07-13T00:55:03;22.00;91.20
13472;DHT22;6808;49.444;11.034;2023-07-13T00:57:29;22.00;91.50
13472;DHT22;6808;49.444;11.034;2023-07-13T00:59:59;22.10;91.60
13472;DHT22;6808;49.444;11.034;2023-07-13T01:02:26;22.00;91.40
13472;DHT22;6808;49.444;11.034;2023-07-13T01:04:51;22.10;91.50
13472;DHT22;6808;49.444;11.034;2023-07-13T01:07:18;22.00;91.60
13472;DHT22;6808;49.444;11.034;2023-07-13T01:09:44;22.00;91.40
13472;DHT22;6808;49.444;11.034;2023-07-13T01:12:11;22.00;91.50
13472;DHT22;6808;49.444;11.034;2023-07-13T01:14:37;21.90;91.60
13472;DHT22;6808;49.444;11.034;2023-07-13T01:17:03;22.30;91.80
13472;DHT22;6808;49.444;11.034;2023-07-13T01:19:36;21.80;91.50
13472;DHT22;6808;49.444;11.034;2023-07-13T01:22:04;21.80;91.80
13472;DHT22;6808;49.444;11.034;2023-07-13T01:24:35;21.80;92.10
13472;DHT22;6808;49.444;11.034;2023-07-13T01:27:01;21.80;92.30
13472;DHT22;6808;49.444;11.034;2023-07-13T01:29:27;21.70;92.10
13472;DHT22;6808;49.444;11.034;2023-07-13T01:31:52;21.50;91.60
13472;DHT22;6808;49.444;11.034;2023-07-13T01:34:18;21.90;92.20
13472;DHT22;6808;49.444;11.034;2023-07-13T01:36:43;21.70;92.20
13472;DHT22;6808;49.444;11.034;2023-07-13T01:39:09;21.70;92.20
13472;DHT22;6808;49.444;11.034;2023-07-13T01:41:35;21.70;92.10
13472;DHT22;6808;49.444;11.034;2023-07-13T01:44:00;21.70;92.00
13472;DHT22;6808;49.444;11.034;2023-07-13T01:46:26;21.60;92.10
13472;DHT22;6808;49.444;11.034;2023-07-13T01:48:51;21.50;92.60
13472;DHT22;6808;49.444;11.034;2023-07-13T01:51:19;21.50;92.70
13472;DHT22;6808;49.444;11.034;2023-07-13T01:53:46;21.50;92.80
13472;DHT22;6808;49.444;11.034;2023-07-13T01:56:11;21.50;92.60
13472;DHT22;6808;49.444;11.034;2023-07-13T01:58:37;21.40;92.70
13472;DHT22;6808;49.444;11.034;2023-07-13T02:01:02;21.50;92.80
13472;DHT22;6808;49.444;11.034;2023-07-13T02:03:28;21.30;92.60
13472;DHT22;6808;49.444;11.034;2023-07-13T02:05:53;21.30;93.10
13472;DHT22;6808;49.444;11.034;2023-07-13T02:08:19;21.30;93.00
13472;DHT22;6808;49.444;11.034;2023-07-13T02:10:45;21.30;92.80
13472;DHT22;6808;49.444;11.034;2023-07-13T02:13:10;21.30;92.90
13472;DHT22;6808;49.444;11.034;2023-07-13T02:15:39;21.20;92.80
13472;DHT22;6808;49.444;11.034;2023-07-13T02:18:05;21.10;92.90
13472;DHT22;6808;49.444;11.034;2023-07-13T02:20:31;21.10;93.10
13472;DHT22;6808;49.444;11.034;2023-07-13T02:22:57;21.00;93.30
13472;DHT22;6808;49.444;11.034;2023-07-13T02:25:23;21.10;93.40
13472;DHT22;6808;49.444;11.034;2023-07-13T02:27:50;21.00;93.60
13472;DHT22;6808;49.444;11.034;2023-07-13T02:30:15;20.90;93.70
13472;DHT22;6808;49.444;11.034;2023-07-13T02:32:41;20.70;93.40
13472;DHT22;6808;49.444;11.034;2023-07-13T02:35:07;20.70;93.40
13472;DHT22;6808;49.444;11.034;2023-07-13T02:37:32;20.50;93.50
13472;DHT22;6808;49.444;11.034;2023-07-13T02:39:58;20.40;93.70
13472;DHT22;6808;49.444;11.034;2023-07-13T02:42:23;20.40;93.40
13472;DHT22;6808;49.444;11.034;2023-07-13T02:44:49;20.40;93.60
13472;DHT22;6808;49.444;11.034;2023-07-13T02:47:16;20.50;93.90
13472;DHT22;6808;49.444;11.034;2023-07-13T02:49:41;20.30;93.50
13472;DHT22;6808;49.444;11.034;2023-07-13T02:52:07;20.30;93.70
13472;DHT22;6808;49.444;11.034;2023-07-13T02:54:32;20.30;93.60
13472;DHT22;6808;49.444;11.034;2023-07-13T02:56:58;20.20;93.60
13472;DHT22;6808;49.444;11.034;2023-07-13T02:59:24;20.10;93.10
13472;DHT22;6808;49.444;11.034;2023-07-13T03:01:49;20.10;93.40
13472;DHT22;6808;49.444;11.034;2023-07-13T03:04:15;20.30;93.60
13472;DHT22;6808;49.444;11.034;2023-07-13T03:06:44;20.40;93.70
13472;DHT22;6808;49.444;11.034;2023-07-13T03:09:10;20.10;93.40
13472;DHT22;6808;49.444;11.034;2023-07-13T03:11:35;20.10;93.90
13472;DHT22;6808;49.444;11.034;2023-07-13T03:14:01;20.40;93.90
13472;DHT22;6808;49.444;11.034;2023-07-13T03:16:27;20.10;93.30
13472;DHT22;6808;49.444;11.034;2023-07-13T03:18:52;20.10;93.50
13472;DHT22;6808;49.444;11.034;2023-07-13T03:21:18;20.10;93.50
13472;DHT22;6808;49.444;11.034;2023-07-13T03:23:43;20.20;93.50
13472;DHT22;6808;49.444;11.034;2023-07-13T03:26:12;20.20;93.70
13472;DHT22;6808;49.444;11.034;2023-07-13T03:28:38;20.20;93.90
13472;DHT22;6808;49.444;11.034;2023-07-13T03:31:07;20.10;93.70
13472;DHT22;6808;49.444;11.034;2023-07-13T03:33:34;20.50;94.20
13472;DHT22;6808;49.444;11.034;2023-07-13T03:35:59;19.80;92.90
13472;DHT22;6808;49.444;11.034;2023-07-13T03:38:25;19.70;93.30
13472;DHT22;6808;49.444;11.034;2023-07-13T03:40:52;19.60;93.00
13472;DHT22;6808;49.444;11.034;2023-07-13T03:43:17;19.50;93.60
13472;DHT22;6808;49.444;11.034;2023-07-13T03:45:43;19.70;92.90
13472;DHT22;6808;49.444;11.034;2023-07-13T03:48:09;19.40;92.80
13472;DHT22;6808;49.444;11.034;2023-07-13T03:50:34;19.30;92.70
13472;DHT22;6808;49.444;11.034;2023-07-13T03:53:00;20.10;93.30
13472;DHT22;6808;49.444;11.034;2023-07-13T03:55:26;19.50;93.10
13472;DHT22;6808;49.444;11.034;2023-07-13T03:57:57;19.40;92.40
13472;DHT22;6808;49.444;11.034;2023-07-13T04:00:23;19.30;92.30
13472;DHT22;6808;49.444;11.034;2023-07-13T04:02:50;19.30;92.60
13472;DHT22;6808;49.444;11.034;2023-07-13T04:05:16;19.20;92.70
13472;DHT22;6808;49.444;11.034;2023-07-13T04:07:41;19.20;92.80
13472;DHT22;6808;49.444;11.034;2023-07-13T04:10:07;19.20;92.60
13472;DHT22;6808;49.444;11.034;2023-07-13T04:12:33;19.10;92.00
13472;DHT22;6808;49.444;11.034;2023-07-13T04:14:58;19.10;92.40
13472;DHT22;6808;49.444;11.034;2023-07-13T04:17:24;19.10;92.10
13472;DHT22;6808;49.444;11.034;2023-07-13T04:19:50;19.30;92.50
13472;DHT22;6808;49.444;11.034;2023-07-13T04:22:15;19.20;92.00
13472;DHT22;6808;49.444;11.034;2023-07-13T04:24:41;19.20;92.00
13472;DHT22;6808;49.444;11.034;2023-07-13T04:27:06;19.20;92.50
13472;DHT22;6808;49.444;11.034;2023-07-13T04:29:32;19.30;92.70
13472;DHT22;6808;49.444;11.034;2023-07-13T04:31:58;19.20;92.60
13472;DHT22;6808;49.444;11.034;2023-07-13T04:34:24;19.20;92.00
13472;DHT22;6808;49.444;11.034;2023-07-13T04:36:50;19.20;92.20
13472;DHT22;6808;49.444;11.034;2023-07-13T04:39:16;19.30;92.00
13472;DHT22;6808;49.444;11.034;2023-07-13T04:41:41;19.40;92.60
13472;DHT22;6808;49.444;11.034;2023-07-13T04:44:07;19.20;92.50
13472;DHT22;6808;49.444;11.034;2023-07-13T04:46:32;19.50;92.10
13472;DHT22;6808;49.444;11.034;2023-07-13T04:48:58;19.30;92.50
13472;DHT22;6808;49.444;11.034;2023-07-13T04:51:24;19.80;92.60
13472;DHT22;6808;49.444;11.034;2023-07-13T04:53:50;19.20;92.00
13472;DHT22;6808;49.444;11.034;2023-07-13T04:56:16;19.30;91.60
13472;DHT22;6808;49.444;11.034;2023-07-13T04:58:41;19.30;91.70
13472;DHT22;6808;49.444;11.034;2023-07-13T05:01:07;19.30;91.40
13472;DHT22;6808;49.444;11.034;2023-07-13T05:03:34;19.40;91.40
13472;DHT22;6808;49.444;11.034;2023-07-13T05:06:05;19.30;91.20
13472;DHT22;6808;49.444;11.034;2023-07-13T05:08:31;19.40;91.30
13472;DHT22;6808;49.444;11.034;2023-07-13T05:11:00;19.40;91.30
13472;DHT22;6808;49.444;11.034;2023-07-13T05:13:26;19.50;91.40
13472;DHT22;6808;49.444;11.034;2023-07-13T05:16:03;19.50;91.30
13472;DHT22;6808;49.444;11.034;2023-07-13T05:18:29;19.50;91.10
13472;DHT22;6808;49.444;11.034;2023-07-13T05:21:03;19.50;91.30
13472;DHT22;6808;49.444;11.034;2023-07-13T05:23:31;19.30;91.00
13472;DHT22;6808;49.444;11.034;2023-07-13T05:25:57;19.40;91.20
13472;DHT22;6808;49.444;11.034;2023-07-13T05:28:22;19.20;91.00
13472;DHT22;6808;49.444;11.034;2023-07-13T05:30:49;19.30;91.20
13472;DHT22;6808;49.444;11.034;2023-07-13T05:33:16;19.40;91.70
13472;DHT22;6808;49.444;11.034;2023-07-13T05:35:41;19.50;91.30
13472;DHT22;6808;49.444;11.034;2023-07-13T05:38:07;19.50;91.10
13472;DHT22;6808;49.444;11.034;2023-07-13T05:40:32;19.70;91.70
13472;DHT22;6808;49.444;11.034;2023-07-13T05:42:58;19.70;92.10
13472;DHT22;6808;49.444;11.034;2023-07-13T05:45:24;19.70;91.80
13472;DHT22;6808;49.444;11.034;2023-07-13T05:47:49;19.80;91.00
13472;DHT22;6808;49.444;11.034;2023-07-13T05:50:15;19.70;90.50
13472;DHT22;6808;49.444;11.034;2023-07-13T05:52:40;19.80;90.60
13472;DHT22;6808;49.444;11.034;2023-07-13T05:55:06;19.90;90.40
13472;DHT22;6808;49.444;11.034;2023-07-13T05:57:32;20.00;90.40
13472;DHT22;6808;49.444;11.034;2023-07-13T05:59:57;20.00;90.40
13472;DHT22;6808;49.444;11.034;2023-07-13T06:02:23;20.30;91.10
13472;DHT22;6808;49.444;11.034;2023-07-13T06:04:48;20.20;90.60
13472;DHT22;6808;49.444;11.034;2023-07-13T06:07:14;20.40;90.20
13472;DHT22;6808;49.444;11.034;2023-07-13T06:09:40;20.50;88.60
13472;DHT22;6808;49.444;11.034;2023-07-13T06:12:06;20.70;87.60
13472;DHT22;6808;49.444;11.034;2023-07-13T06:14:32;20.50;87.50
13472;DHT22;6808;49.444;11.034;2023-07-13T06:16:57;20.40;87.50
13472;DHT22;6808;49.444;11.034;2023-07-13T06:19:23;20.40;87.50
13472;DHT22;6808;49.444;11.034;2023-07-13T06:21:49;20.30;89.60
13472;DHT22;6808;49.444;11.034;2023-07-13T06:24:14;20.30;88.20
13472;DHT22;6808;49.444;11.034;2023-07-13T06:26:40;20.40;88.90
13472;DHT22;6808;49.444;11.034;2023-07-13T06:29:06;20.70;89.60
13472;DHT22;6808;49.444;11.034;2023-07-13T06:31:31;20.90;89.30
13472;DHT22;6808;49.444;11.034;2023-07-13T06:33:57;21.10;88.80
13472;DHT22;6808;49.444;11.034;2023-07-13T06:36:22;21.20;86.10
13472;DHT22;6808;49.444;11.034;2023-07-13T06:38:48;21.20;86.50
13472;DHT22;6808;49.444;11.034;2023-07-13T06:41:14;21.20;86.80
13472;DHT22;6808;49.444;11.034;2023-07-13T06:43:39;21.30;85.60
13472;DHT22;6808;49.444;11.034;2023-07-13T06:46:05;21.30;84.90
13472;DHT22;6808;49.444;11.034;2023-07-13T06:48:31;21.30;84.60
13472;DHT22;6808;49.444;11.034;2023-07-13T06:50:57;21.10;86.40
13472;DHT22;6808;49.444;11.034;2023-07-13T06:53:23;21.10;84.60
13472;DHT22;6808;49.444;11.034;2023-07-13T06:55:49;21.10;85.50
13472;DHT22;6808;49.444;11.034;2023-07-13T06:58:16;21.10;85.70
13472;DHT22;6808;49.444;11.034;2023-07-13T07:00:42;21.30;84.90
13472;DHT22;6808;49.444;11.034;2023-07-13T07:03:08;21.00;85.10
13472;DHT22;6808;49.444;11.034;2023-07-13T07:05:33;21.20;85.40
13472;DHT22;6808;49.444;11.034;2023-07-13T07:07:59;21.00;85.10
13472;DHT22;6808;49.444;11.034;2023-07-13T07:10:25;21.10;85.10
13472;DHT22;6808;49.444;11.034;2023-07-13T07:12:51;21.30;86.30
13472;DHT22;6808;49.444;11.034;2023-07-13T07:15:18;21.40;83.80
13472;DHT22;6808;49.444;11.034;2023-07-13T07:17:43;21.40;85.60
13472;DHT22;6808;49.444;11.034;2023-07-13T07:20:09;21.50;85.00
13472;DHT22;6808;49.444;11.034;2023-07-13T07:22:35;21.60;83.50
13472;DHT22;6808;49.444;11.034;2023-07-13T07:25:01;21.70;83.80
13472;DHT22;6808;49.444;11.034;2023-07-13T07:27:26;21.60;83.90
13472;DHT22;6808;49.444;11.034;2023-07-13T07:29:52;21.50;85.30
13472;DHT22;6808;49.444;11.034;2023-07-13T07:32:19;21.60;84.60
13472;DHT22;6808;49.444;11.034;2023-07-13T07:34:44;21.50;84.80
13472;DHT22;6808;49.444;11.034;2023-07-13T07:37:12;21.60;84.80
13472;DHT22;6808;49.444;11.034;2023-07-13T07:39:38;21.90;86.10
13472;DHT22;6808;49.444;11.034;2023-07-13T07:42:06;22.00;82.90
13472;DHT22;6808;49.444;11.034;2023-07-13T07:44:32;22.00;83.70
13472;DHT22;6808;49.444;11.034;2023-07-13T07:46:58;22.10;83.10
13472;DHT22;6808;49.444;11.034;2023-07-13T07:49:23;22.00;84.20
13472;DHT22;6808;49.444;11.034;2023-07-13T07:51:49;22.00;82.00
13472;DHT22;6808;49.444;11.034;2023-07-13T07:54:15;21.90;85.10
13472;DHT22;6808;49.444;11.034;2023-07-13T07:56:41;22.00;83.90
13472;DHT22;6808;49.444;11.034;2023-07-13T07:59:07;22.10;82.00
13472;DHT22;6808;49.444;11.034;2023-07-13T08:01:32;22.10;82.40
13472;DHT22;6808;49.444;11.034;2023-07-13T08:03:58;22.20;82.30
13472;DHT22;6808;49.444;11.034;2023-07-13T08:06:24;22.40;81.80
13472;DHT22;6808;49.444;11.034;2023-07-13T08:08:50;22.50;83.00
13472;DHT22;6808;49.444;11.034;2023-07-13T08:11:15;22.70;76.80
13472;DHT22;6808;49.444;11.034;2023-07-13T08:13:41;22.80;80.20
13472;DHT22;6808;49.444;11.034;2023-07-13T08:16:07;23.00;81.00
13472;DHT22;6808;49.444;11.034;2023-07-13T08:18:32;23.30;78.20
13472;DHT22;6808;49.444;11.034;2023-07-13T08:21:02;23.50;77.90
13472;DHT22;6808;49.444;11.034;2023-07-13T08:23:28;23.60;79.00
13472;DHT22;6808;49.444;11.034;2023-07-13T08:25:54;23.70;75.40
13472;DHT22;6808;49.444;11.034;2023-07-13T08:28:21;23.80;76.40
13472;DHT22;6808;49.444;11.034;2023-07-13T08:30:47;23.70;71.90
13472;DHT22;6808;49.444;11.034;2023-07-13T08:33:15;23.80;67.70
13472;DHT22;6808;49.444;11.034;2023-07-13T08:35:40;23.90;69.20
13472;DHT22;6808;49.444;11.034;2023-07-13T08:38:06;23.80;69.50
13472;DHT22;6808;49.444;11.034;2023-07-13T08:40:33;23.80;65.90
13472;DHT22;6808;49.444;11.034;2023-07-13T08:43:00;23.80;65.50
13472;DHT22;6808;49.444;11.034;2023-07-13T08:45:28;23.90;60.50
13472;DHT22;6808;49.444;11.034;2023-07-13T08:48:03;23.90;66.80
13472;DHT22;6808;49.444;11.034;2023-07-13T08:50:37;23.90;62.90
13472;DHT22;6808;49.444;11.034;2023-07-13T08:53:04;24.00;61.70
13472;DHT22;6808;49.444;11.034;2023-07-13T08:55:34;24.10;63.70
13472;DHT22;6808;49.444;11.034;2023-07-13T08:58:14;24.10;61.20
13472;DHT22;6808;49.444;11.034;2023-07-13T09:01:00;24.10;61.00
13472;DHT22;6808;49.444;11.034;2023-07-13T09:03:36;24.10;59.70
13472;DHT22;6808;49.444;11.034;2023-07-13T09:06:03;24.10;66.20
13472;DHT22;6808;49.444;11.034;2023-07-13T09:11:41;24.20;63.40
13472;DHT22;6808;49.444;11.034;2023-07-13T09:14:42;24.20;62.20
13472;DHT22;6808;49.444;11.034;2023-07-13T09:17:19;24.20;62.60
13472;DHT22;6808;49.444;11.034;2023-07-13T09:19:51;24.20;59.80
13472;DHT22;6808;49.444;11.034;2023-07-13T09:22:20;24.10;61.00
13472;DHT22;6808;49.444;11.034;2023-07-13T09:24:58;24.00;57.00
13472;DHT22;6808;49.444;11.034;2023-07-13T09:27:37;24.00;58.20
13472;DHT22;6808;49.444;11.034;2023-07-13T09:30:34;24.20;58.70
13472;DHT22;6808;49.444;11.034;2023-07-13T09:33:01;24.30;66.20
13472;DHT22;6808;49.444;11.034;2023-07-13T09:35:28;24.30;62.10
13472;DHT22;6808;49.444;11.034;2023-07-13T09:38:31;24.50;61.90
13472;DHT22;6808;49.444;11.034;2023-07-13T09:41:14;24.50;62.50
13472;DHT22;6808;49.444;11.034;2023-07-13T09:46:38;24.50;59.40
13472;DHT22;6808;49.444;11.034;2023-07-13T09:49:03;24.70;59.00
13472;DHT22;6808;49.444;11.034;2023-07-13T09:51:29;24.80;55.80
13472;DHT22;6808;49.444;11.034;2023-07-13T09:53:55;24.70;53.70
13472;DHT22;6808;49.444;11.034;2023-07-13T09:56:21;24.70;58.50
13472;DHT22;6808;49.444;11.034;2023-07-13T09:58:47;24.80;56.00
13472;DHT22;6808;49.444;11.034;2023-07-13T10:01:13;24.70;55.30
13472;DHT22;6808;49.444;11.034;2023-07-13T10:03:52;24.70;54.10
13472;DHT22;6808;49.444;11.034;2023-07-13T10:06:20;24.90;55.20
13472;DHT22;6808;49.444;11.034;2023-07-13T10:08:52;25.00;55.40
13472;DHT22;6808;49.444;11.034;2023-07-13T10:11:22;25.10;55.20
13472;DHT22;6808;49.444;11.034;2023-07-13T10:13:56;25.20;58.30
13472;DHT22;6808;49.444;11.034;2023-07-13T10:16:25;25.30;57.50
13472;DHT22;6808;49.444;11.034;2023-07-13T10:19:15;25.40;58.30
13472;DHT22;6808;49.444;11.034;2023-07-13T10:22:19;25.40;57.60
13472;DHT22;6808;49.444;11.034;2023-07-13T10:24:45;25.50;55.00
13472;DHT22;6808;49.444;11.034;2023-07-13T10:27:19;25.50;52.60
13472;DHT22;6808;49.444;11.034;2023-07-13T10:32:26;25.50;52.60
13472;DHT22;6808;49.444;11.034;2023-07-13T10:34:51;25.70;54.60
13472;DHT22;6808;49.444;11.034;2023-07-13T10:37:31;25.60;54.30
13472;DHT22;6808;49.444;11.034;2023-07-13T10:40:03;25.70;53.40
13472;DHT22;6808;49.444;11.034;2023-07-13T10:42:39;25.50;53.80
13472;DHT22;6808;49.444;11.034;2023-07-13T10:45:34;25.50;52.90
13472;DHT22;6808;49.444;11.034;2023-07-13T10:48:00;25.90;55.40
13472;DHT22;6808;49.444;11.034;2023-07-13T10:50:28;26.00;53.70
13472;DHT22;6808;49.444;11.034;2023-07-13T10:53:02;26.00;54.30
13472;DHT22;6808;49.444;11.034;2023-07-13T10:55:36;25.90;52.40
13472;DHT22;6808;49.444;11.034;2023-07-13T10:58:19;25.80;52.20
13472;DHT22;6808;49.444;11.034;2023-07-13T11:03:58;26.00;51.60
13472;DHT22;6808;49.444;11.034;2023-07-13T11:08:58;26.50;51.70
13472;DHT22;6808;49.444;11.034;2023-07-13T11:21:34;25.90;50.80
13472;DHT22;6808;49.444;11.034;2023-07-13T11:26:50;26.00;52.10
13472;DHT22;6808;49.444;11.034;2023-07-13T11:32:00;25.90;55.30
13472;DHT22;6808;49.444;11.034;2023-07-13T11:34:38;26.00;53.50
13472;DHT22;6808;49.444;11.034;2023-07-13T11:37:11;26.20;53.40
13472;DHT22;6808;49.444;11.034;2023-07-13T11:39:42;26.40;51.60
13472;DHT22;6808;49.444;11.034;2023-07-13T11:42:16;26.40;51.90
13472;DHT22;6808;49.444;11.034;2023-07-13T11:44:48;26.50;52.20
13472;DHT22;6808;49.444;11.034;2023-07-13T11:47:19;26.50;50.20
13472;DHT22;6808;49.444;11.034;2023-07-13T11:49:53;26.60;52.00
13472;DHT22;6808;49.444;11.034;2023-07-13T11:52:33;26.70;51.60
13472;DHT22;6808;49.444;11.034;2023-07-13T11:55:00;26.70;48.10
13472;DHT22;6808;49.444;11.034;2023-07-13T11:57:30;26.80;52.50
13472;DHT22;6808;49.444;11.034;2023-07-13T12:00:11;26.80;52.40
13472;DHT22;6808;49.444;11.034;2023-07-13T12:02:40;27.00;52.00
13472;DHT22;6808;49.444;11.034;2023-07-13T12:05:11;26.90;51.20
13472;DHT22;6808;49.444;11.034;2023-07-13T12:07:38;26.70;49.70
13472;DHT22;6808;49.444;11.034;2023-07-13T12:10:16;26.60;50.40
13472;DHT22;6808;49.444;11.034;2023-07-13T12:12:53;26.50;48.50
13472;DHT22;6808;49.444;11.034;2023-07-13T12:15:19;26.60;54.20
13472;DHT22;6808;49.444;11.034;2023-07-13T12:17:47;26.60;49.20
13472;DHT22;6808;49.444;11.034;2023-07-13T12:20:27;26.70;50.60
13472;DHT22;6808;49.444;11.034;2023-07-13T12:22:56;26.80;49.70
13472;DHT22;6808;49.444;11.034;2023-07-13T12:25:23;26.80;48.70
13472;DHT22;6808;49.444;11.034;2023-07-13T12:27:50;26.90;48.80
13472;DHT22;6808;49.444;11.034;2023-07-13T12:30:31;26.90;51.80
13472;DHT22;6808;49.444;11.034;2023-07-13T12:33:10;27.10;53.70
13472;DHT22;6808;49.444;11.034;2023-07-13T12:35:47;27.30;53.90
13472;DHT22;6808;49.444;11.034;2023-07-13T12:38:13;27.30;50.50
13472;DHT22;6808;49.444;11.034;2023-07-13T12:40:39;27.50;53.20
13472;DHT22;6808;49.444;11.034;2023-07-13T12:43:11;27.40;48.90
13472;DHT22;6808;49.444;11.034;2023-07-13T12:45:38;27.20;49.00
13472;DHT22;6808;49.444;11.034;2023-07-13T12:48:11;27.30;48.60
13472;DHT22;6808;49.444;11.034;2023-07-13T12:50:42;27.20;49.70
13472;DHT22;6808;49.444;11.034;2023-07-13T12:53:19;27.20;49.10
13472;DHT22;6808;49.444;11.034;2023-07-13T12:56:03;27.10;49.20
13472;DHT22;6808;49.444;11.034;2023-07-13T12:58:32;27.00;48.20
13472;DHT22;6808;49.444;11.034;2023-07-13T13:01:02;26.80;48.90
13472;DHT22;6808;49.444;11.034;2023-07-13T13:03:37;26.80;50.00
13472;DHT22;6808;49.444;11.034;2023-07-13T13:06:17;26.80;50.10
13472;DHT22;6808;49.444;11.034;2023-07-13T13:08:50;26.90;49.60
13472;DHT22;6808;49.444;11.034;2023-07-13T13:11:16;27.00;50.80
13472;DHT22;6808;49.444;11.034;2023-07-13T13:13:43;27.20;51.40
13472;DHT22;6808;49.444;11.034;2023-07-13T13:16:23;27.30;49.70
13472;DHT22;6808;49.444;11.034;2023-07-13T13:18:51;27.30;49.20
13472;DHT22;6808;49.444;11.034;2023-07-13T13:21:17;27.30;51.10
13472;DHT22;6808;49.444;11.034;2023-07-13T13:23:45;27.20;50.90
13472;DHT22;6808;49.444;11.034;2023-07-13T13:26:13;27.10;48.80
13472;DHT22;6808;49.444;11.034;2023-07-13T13:28:40;27.20;48.60
13472;DHT22;6808;49.444;11.034;2023-07-13T13:31:08;27.10;50.70
13472;DHT22;6808;49.444;11.034;2023-07-13T13:33:38;27.30;51.00
13472;DHT22;6808;49.444;11.034;2023-07-13T13:36:13;27.20;50.90
13472;DHT22;6808;49.444;11.034;2023-07-13T13:38:41;27.40;50.20
13472;DHT22;6808;49.444;11.034;2023-07-13T13:41:12;27.60;53.90
13472;DHT22;6808;49.444;11.034;2023-07-13T13:43:39;27.60;48.10
13472;DHT22;6808;49.444;11.034;2023-07-13T13:46:14;27.60;49.70
13472;DHT22;6808;49.444;11.034;2023-07-13T13:48:40;27.60;51.50
13472;DHT22;6808;49.444;11.034;2023-07-13T13:51:14;27.70;51.40
13472;DHT22;6808;49.444;11.034;2023-07-13T13:53:40;27.70;48.40
13472;DHT22;6808;49.444;11.034;2023-07-13T13:56:06;27.60;48.80
13472;DHT22;6808;49.444;11.034;2023-07-13T13:58:32;27.50;48.00
13472;DHT22;6808;49.444;11.034;2023-07-13T14:00:58;27.20;48.00
13472;DHT22;6808;49.444;11.034;2023-07-13T14:03:23;27.00;48.90
13472;DHT22;6808;49.444;11.034;2023-07-13T14:05:50;26.90;47.80
13472;DHT22;6808;49.444;11.034;2023-07-13T14:08:18;26.80;48.50
13472;DHT22;6808;49.444;11.034;2023-07-13T14:10:52;26.70;48.50
13472;DHT22;6808;49.444;11.034;2023-07-13T14:13:44;26.70;49.70
13472;DHT22;6808;49.444;11.034;2023-07-13T14:16:16;26.80;48.50
13472;DHT22;6808;49.444;11.034;2023-07-13T14:18:44;27.00;48.20
13472;DHT22;6808;49.444;11.034;2023-07-13T14:21:21;26.90;47.50
13472;DHT22;6808;49.444;11.034;2023-07-13T14:23:48;26.90;48.20
13472;DHT22;6808;49.444;11.034;2023-07-13T14:28:47;26.80;48.60
13472;DHT22;6808;49.444;11.034;2023-07-13T14:31:15;26.80;48.60
13472;DHT22;6808;49.444;11.034;2023-07-13T14:33:42;26.90;47.90
13472;DHT22;6808;49.444;11.034;2023-07-13T14:36:21;27.10;49.40
13472;DHT22;6808;49.444;11.034;2023-07-13T14:38:48;27.00;47.70
13472;DHT22;6808;49.444;11.034;2023-07-13T14:41:14;26.90;48.70
13472;DHT22;6808;49.444;11.034;2023-07-13T14:43:39;27.00;47.60
13472;DHT22;6808;49.444;11.034;2023-07-13T14:46:05;27.20;46.80
13472;DHT22;6808;49.444;11.034;2023-07-13T14:48:31;27.10;47.20
13472;DHT22;6808;49.444;11.034;2023-07-13T14:50:58;27.10;47.40
13472;DHT22;6808;49.444;11.034;2023-07-13T14:53:25;27.20;48.70
13472;DHT22;6808;49.444;11.034;2023-07-13T14:55:53;27.20;47.50
13472;DHT22;6808;49.444;11.034;2023-07-13T14:58:18;27.30;47.80
13472;DHT22;6808;49.444;11.034;2023-07-13T15:00:44;27.30;47.00
13472;DHT22;6808;49.444;11.034;2023-07-13T15:03:22;27.40;45.50
13472;DHT22;6808;49.444;11.034;2023-07-13T15:05:48;27.40;46.90
13472;DHT22;6808;49.444;11.034;2023-07-13T15:08:16;27.20;44.60
13472;DHT22;6808;49.444;11.034;2023-07-13T15:10:42;27.00;44.30
13472;DHT22;6808;49.444;11.034;2023-07-13T15:13:15;26.90;45.50
13472;DHT22;6808;49.444;11.034;2023-07-13T15:15:43;26.90;45.20
13472;DHT22;6808;49.444;11.034;2023-07-13T15:18:12;27.00;46.40
13472;DHT22;6808;49.444;11.034;2023-07-13T15:20:38;27.00;45.00
13472;DHT22;6808;49.444;11.034;2023-07-13T15:23:04;27.00;45.30
13472;DHT22;6808;49.444;11.034;2023-07-13T15:25:31;27.00;45.70
13472;DHT22;6808;49.444;11.034;2023-07-13T15:27:58;27.10;46.00
13472;DHT22;6808;49.444;11.034;2023-07-13T15:30:40;27.10;45.80
13472;DHT22;6808;49.444;11.034;2023-07-13T15:33:21;27.00;46.30
13472;DHT22;6808;49.444;11.034;2023-07-13T15:35:48;26.90;45.10
13472;DHT22;6808;49.444;11.034;2023-07-13T15:38:25;26.70;44.90
13472;DHT22;6808;49.444;11.034;2023-07-13T15:40:53;26.60;45.20
13472;DHT22;6808;49.444;11.034;2023-07-13T15:43:19;26.50;45.10
13472;DHT22;6808;49.444;11.034;2023-07-13T15:45:46;26.50;45.90
13472;DHT22;6808;49.444;11.034;2023-07-13T15:48:22;26.50;46.80
13472;DHT22;6808;49.444;11.034;2023-07-13T15:50:53;26.50;46.00
13472;DHT22;6808;49.444;11.034;2023-07-13T15:53:39;26.30;46.40
13472;DHT22;6808;49.444;11.034;2023-07-13T15:56:28;26.20;45.70
13472;DHT22;6808;49.444;11.034;2023-07-13T15:58:55;26.10;46.40
13472;DHT22;6808;49.444;11.034;2023-07-13T16:01:22;26.10;46.00
13472;DHT22;6808;49.444;11.034;2023-07-13T16:03:48;26.10;46.80
13472;DHT22;6808;49.444;11.034;2023-07-13T16:06:24;26.10;47.20
13472;DHT22;6808;49.444;11.034;2023-07-13T16:08:51;26.20;48.00
13472;DHT22;6808;49.444;11.034;2023-07-13T16:11:23;26.10;47.70
13472;DHT22;6808;49.444;11.034;2023-07-13T16:13:50;26.10;47.90